Etusivu
METAR-TAF:

METAR-TAF

Lentoasemat :

Arish, Egypti

Leveyspiiri: 31-05N, Pituuspiiri: 033-49E, korkeus merenpinnasta: 31 m

METAR: puuttuu

Aika: 14:20 (12:20 UTC)

Sääennuste

Tämä raportti tehtiin 1 tunti ja 20 minuuttia sitten, kello 11.00 UTC
Ennuste voimassa 29. päivästä klo 12 UTC - 30. päivään klo 18 UTC
Tuuli 8 kn lännestä/luoteesta
Näkyvyys 10 km tai enemmän
Hajanaisia pilviä 2000 ft:n korkeudessa

TAF: HEAR 291100Z 2912/3018 29008KT 9999 SCT020

Säähavainnot ja -ennusteet yli 4000 lentoasemalta (METAR- ja TAF-raportit).

Käytössä olevat sääasemat on merkitty karttaan keltaisilla ja punaisilla pisteillä.

Aseta hiiri pisteen päälle nähdäksesi sääaseman nimen.

Klikkaa sitten nähdäksesi säähavainnot ja -ennusteet.

Kartan vaihtaminen: klikkaa mustalla rastilla varustettuja vihreitä pisteitä, niin voit zoomata sisään; viivalla varustettua vihreää pistettä, niin voit zoomata ulos tai vihreitä nuolia, niin pääset viereisille kartoille.


METAR-TAF: